Time;durP1;ratioP1;P1;durP2;ratioP2;P2;SDS_P1;SDS_P2;PMS_P1;PMS_P2;Temp;Humidity;BMP_temperature;BMP_pressure;BME280_temperature;BME280_humidity;BME280_pressure;Samples;Min_cycle;Max_cycle;Signal;HPM_P1;HPM_P2
2022/10/15 00:00:00;;;;;;;11.93;10.73;;;15.90;99.90;;;;;;2090503;28;20066;-72
2022/10/15 00:01:12;;;;;;;10.05;9.05;;;15.90;99.90;;;;;;2089595;28;20037;-72
2022/10/15 00:02:13;;;;;;;13.43;12.13;;;15.90;99.90;;;;;;2092849;28;20035;-72
2022/10/15 00:03:13;;;;;;;11.52;10.45;;;15.90;99.90;;;;;;2089232;28;20115;-72
2022/10/15 00:04:14;;;;;;;10.55;9.43;;;15.90;99.90;;;;;;2084607;28;20039;-72
2022/10/15 00:05:15;;;;;;;12.00;10.43;;;15.90;99.90;;;;;;2088047;28;20040;-72
2022/10/15 00:06:18;;;;;;;12.07;9.32;;;15.90;99.90;;;;;;2092057;28;20028;-72
2022/10/15 00:07:18;;;;;;;10.23;9.20;;;15.90;99.90;;;;;;2092307;28;20043;-72
2022/10/15 00:08:19;;;;;;;11.48;8.38;;;15.90;99.90;;;;;;2088664;28;20036;-72
2022/10/15 00:09:19;;;;;;;13.00;10.30;;;15.90;99.90;;;;;;2090011;28;20016;-72
2022/10/15 00:10:20;;;;;;;13.30;11.07;;;15.90;99.90;;;;;;2088420;28;20028;-72
2022/10/15 00:11:24;;;;;;;12.52;11.18;;;15.90;99.90;;;;;;2088973;28;20025;-72
2022/10/15 00:12:25;;;;;;;13.07;11.70;;;15.90;99.90;;;;;;2090639;28;20021;-72
2022/10/15 00:13:25;;;;;;;12.07;10.50;;;15.90;99.90;;;;;;2091094;28;20025;-72
2022/10/15 00:14:26;;;;;;;13.38;11.80;;;15.90;99.90;;;;;;2091581;28;20029;-72
2022/10/15 00:15:27;;;;;;;15.38;11.20;;;15.90;99.90;;;;;;2091027;28;20017;-72
2022/10/15 00:16:28;;;;;;;11.75;10.18;;;15.90;99.90;;;;;;2090797;28;20036;-72
2022/10/15 00:17:28;;;;;;;12.45;11.15;;;15.90;99.90;;;;;;2091108;28;20808;-72
2022/10/15 00:18:29;;;;;;;12.27;10.95;;;15.90;99.90;;;;;;2090834;28;20108;-72
2022/10/15 00:19:30;;;;;;;12.45;10.70;;;15.90;99.90;;;;;;2090545;28;20032;-72
2022/10/15 00:20:30;;;;;;;12.25;10.23;;;15.90;99.90;;;;;;2090588;28;20024;-72
2022/10/15 00:21:31;;;;;;;11.57;10.38;;;15.80;99.90;;;;;;2089179;28;20031;-72
2022/10/15 00:22:31;;;;;;;12.43;10.02;;;15.80;99.90;;;;;;2090810;28;20460;-72
2022/10/15 00:23:32;;;;;;;10.65;9.63;;;15.80;99.90;;;;;;2088433;28;20116;-72
2022/10/15 00:24:32;;;;;;;17.23;11.48;;;15.80;99.90;;;;;;2090501;28;20033;-72
2022/10/15 00:25:33;;;;;;;12.60;11.30;;;15.80;99.90;;;;;;2089781;28;20072;-72
2022/10/15 00:26:33;;;;;;;12.50;11.18;;;15.80;99.90;;;;;;2091113;28;20028;-72
2022/10/15 00:27:35;;;;;;;9.25;8.32;;;15.80;99.90;;;;;;2090217;28;20028;-72
2022/10/15 00:28:36;;;;;;;10.70;9.63;;;15.80;99.90;;;;;;2089497;28;20033;-72
2022/10/15 00:29:36;;;;;;;12.15;10.07;;;15.80;99.90;;;;;;2089621;28;20116;-72
2022/10/15 00:30:37;;;;;;;9.82;9.02;;;15.80;99.90;;;;;;2093045;28;20029;-72
2022/10/15 00:31:37;;;;;;;10.15;8.73;;;15.80;99.90;;;;;;2091464;28;20020;-72
2022/10/15 00:32:38;;;;;;;11.65;9.77;;;15.80;99.90;;;;;;2090637;28;20025;-72
2022/10/15 00:33:40;;;;;;;11.02;8.80;;;15.80;99.90;;;;;;2090315;28;20037;-72
2022/10/15 00:34:40;;;;;;;12.82;10.82;;;15.80;99.90;;;;;;2088689;28;20814;-72
2022/10/15 00:35:41;;;;;;;10.35;8.98;;;15.80;99.90;;;;;;2091374;28;20013;-72
2022/10/15 00:36:41;;;;;;;13.35;9.98;;;15.80;99.90;;;;;;2090711;28;20027;-72
2022/10/15 00:37:43;;;;;;;10.90;9.70;;;15.80;99.90;;;;;;2091038;28;20780;-72
2022/10/15 00:38:44;;;;;;;14.07;11.60;;;15.80;99.90;;;;;;2090278;28;20025;-72
2022/10/15 00:39:45;;;;;;;11.90;9.40;;;15.80;99.90;;;;;;2088786;28;20037;-72
2022/10/15 00:40:45;;;;;;;11.98;8.90;;;15.80;99.90;;;;;;2091014;28;20027;-72
2022/10/15 00:41:46;;;;;;;10.35;9.27;;;15.70;99.90;;;;;;2089490;28;20029;-72
2022/10/15 00:42:46;;;;;;;11.70;9.75;;;15.70;99.90;;;;;;2089659;28;20093;-72
2022/10/15 00:43:52;;;;;;;13.55;11.75;;;15.70;99.90;;;;;;2091146;28;20020;-72
2022/10/15 00:44:57;;;;;;;11.02;10.02;;;15.70;99.90;;;;;;2092469;28;20035;-72
2022/10/15 00:45:57;;;;;;;10.75;9.65;;;15.70;99.90;;;;;;2090877;28;20060;-72
2022/10/15 00:47:02;;;;;;;13.25;10.27;;;15.70;99.90;;;;;;2089228;28;20082;-72
2022/10/15 00:48:02;;;;;;;15.07;10.85;;;15.70;99.90;;;;;;2089762;28;20060;-72
2022/10/15 00:49:24;;;;;;;13.70;12.00;;;15.70;99.90;;;;;;2090677;28;20024;-72
2022/10/15 00:50:26;;;;;;;12.32;10.00;;;15.70;99.90;;;;;;2089869;28;20417;-72
2022/10/15 00:51:33;;;;;;;10.35;9.32;;;15.70;99.90;;;;;;2090226;28;20025;-72
2022/10/15 00:52:39;;;;;;;14.20;11.10;;;15.70;99.90;;;;;;2092666;28;20025;-72
2022/10/15 00:53:40;;;;;;;11.40;9.73;;;15.70;99.90;;;;;;2092831;28;20104;-72
2022/10/15 00:54:46;;;;;;;14.75;10.93;;;15.70;99.90;;;;;;2089540;28;20477;-72
2022/10/15 00:55:46;;;;;;;12.02;10.65;;;15.70;99.90;;;;;;2090416;28;20102;-72
2022/10/15 00:56:49;;;;;;;13.07;9.90;;;15.70;99.90;;;;;;2089896;28;20025;-72
2022/10/15 00:57:50;;;;;;;11.63;10.20;;;15.70;99.90;;;;;;2090372;28;20421;-72
2022/10/15 00:58:51;;;;;;;12.55;10.90;;;15.70;99.90;;;;;;2091024;28;20510;-72
2022/10/15 00:59:56;;;;;;;10.80;9.65;;;15.70;99.90;;;;;;2089189;28;20071;-72
2022/10/15 01:00:57;;;;;;;9.45;8.23;;;15.70;99.90;;;;;;2091865;28;20114;-73
2022/10/15 01:01:59;;;;;;;10.68;9.55;;;15.70;99.90;;;;;;2091550;28;20025;-72
2022/10/15 01:03:00;;;;;;;11.13;10.02;;;15.70;99.90;;;;;;2091264;28;20675;-73
2022/10/15 01:04:03;;;;;;;14.07;10.23;;;15.70;99.90;;;;;;2090232;28;20681;-73
2022/10/15 01:05:04;;;;;;;10.20;9.20;;;15.70;99.90;;;;;;2089504;28;20025;-73
2022/10/15 01:06:05;;;;;;;9.90;8.90;;;15.70;99.90;;;;;;2090412;28;20404;-73
2022/10/15 01:07:06;;;;;;;8.52;7.70;;;15.70;99.90;;;;;;2088805;28;20044;-73
2022/10/15 01:08:07;;;;;;;11.93;10.80;;;15.70;99.90;;;;;;2088635;28;20078;-73
2022/10/15 01:09:08;;;;;;;9.30;8.48;;;15.70;99.90;;;;;;2089843;28;20025;-73
2022/10/15 01:10:09;;;;;;;12.48;8.73;;;15.70;99.90;;;;;;2090757;28;20084;-73
2022/10/15 01:11:26;;;;;;;11.73;9.57;;;15.70;99.90;;;;;;2093085;28;20028;-73
2022/10/15 01:12:43;;;;;;;11.77;10.57;;;15.70;99.90;;;;;;2091566;28;20032;-73
2022/10/15 01:13:59;;;;;;;12.20;11.00;;;15.70;99.90;;;;;;2090023;28;20025;-73
2022/10/15 01:15:08;;;;;;;12.65;10.52;;;15.70;99.90;;;;;;2090292;28;20060;-73
2022/10/15 01:16:15;;;;;;;10.65;9.65;;;15.70;99.90;;;;;;2090560;28;20035;-73
2022/10/15 01:17:30;;;;;;;10.52;8.13;;;15.70;99.90;;;;;;2091970;28;20021;-73
2022/10/15 01:18:38;;;;;;;11.25;10.10;;;15.60;99.90;;;;;;2092531;28;20025;-73
2022/10/15 01:19:48;;;;;;;8.35;7.57;;;15.60;99.90;;;;;;2090410;28;20546;-73
2022/10/15 01:20:57;;;;;;;12.88;9.85;;;15.60;99.90;;;;;;2088056;28;20021;-73
2022/10/15 01:22:07;;;;;;;10.57;9.50;;;15.60;99.90;;;;;;2090539;28;20409;-73
2022/10/15 01:23:07;;;;;;;;;;;15.60;99.90;;;;;;2091100;28;20036;-73
2022/10/15 01:24:31;;;;;;;9.32;8.40;;;15.60;99.90;;;;;;2090050;28;19913;-73
2022/10/15 01:25:54;;;;;;;9.00;7.85;;;15.60;99.90;;;;;;2088630;28;20021;-73
2022/10/15 01:27:23;;;;;;;12.38;9.73;;;15.60;99.90;;;;;;2092603;28;20096;-73
2022/10/15 01:28:42;;;;;;;13.45;9.98;;;15.60;99.90;;;;;;2091949;28;20108;-72
2022/10/15 01:30:04;;;;;;;7.20;6.55;;;15.60;99.90;;;;;;2090037;28;20390;-73
2022/10/15 01:31:14;;;;;;;6.82;6.20;;;15.50;99.90;;;;;;2091095;28;20039;-73
2022/10/15 01:32:27;;;;;;;7.63;6.93;;;15.50;99.90;;;;;;2091085;28;20017;-73
2022/10/15 01:33:42;;;;;;;7.38;6.78;;;15.50;99.90;;;;;;2088556;28;20499;-73
2022/10/15 01:35:01;;;;;;;8.90;8.00;;;15.50;99.90;;;;;;2090419;28;21504;-73
2022/10/15 01:36:38;;;;;;;11.00;9.30;;;15.50;99.90;;;;;;2090048;28;20536;-73
2022/10/15 01:37:45;;;;;;;10.07;9.00;;;15.50;99.90;;;;;;2090001;28;20032;-73
2022/10/15 01:38:59;;;;;;;8.98;8.27;;;15.50;99.90;;;;;;2089781;28;20025;-73
2022/10/15 01:40:15;;;;;;;11.73;7.38;;;15.50;99.90;;;;;;2091463;28;20140;-73
2022/10/15 01:41:40;;;;;;;9.32;6.70;;;15.50;99.90;;;;;;2093780;28;20024;-73
2022/10/15 01:42:52;;;;;;;6.40;5.90;;;15.50;99.90;;;;;;2091664;28;20371;-73
2022/10/15 01:44:01;;;;;;;8.98;8.07;;;15.40;99.90;;;;;;2090048;28;20484;-73
2022/10/15 01:45:08;;;;;;;11.15;8.32;;;15.40;99.90;;;;;;2091506;28;20033;-73
2022/10/15 01:46:19;;;;;;;9.98;7.82;;;15.40;99.90;;;;;;2090915;28;20043;-73
2022/10/15 01:47:24;;;;;;;7.82;7.13;;;15.40;99.90;;;;;;2092062;28;20025;-73
2022/10/15 01:48:28;;;;;;;7.82;7.05;;;15.40;99.90;;;;;;2093145;28;20106;-73
2022/10/15 01:49:37;;;;;;;9.27;7.30;;;15.40;99.90;;;;;;2090717;28;20164;-73
2022/10/15 01:50:45;;;;;;;9.95;8.27;;;15.40;99.90;;;;;;2091262;28;20453;-73
2022/10/15 01:51:49;;;;;;;9.75;8.20;;;15.40;99.90;;;;;;2091769;28;20025;-73
2022/10/15 01:52:51;;;;;;;10.60;8.63;;;15.40;99.90;;;;;;2094222;28;20047;-73
2022/10/15 01:53:52;;;;;;;9.88;8.70;;;15.40;99.90;;;;;;2094728;28;20029;-73
2022/10/15 01:54:53;;;;;;;8.95;8.10;;;15.40;99.90;;;;;;2090427;28;20098;-73
2022/10/15 01:56:03;;;;;;;11.85;8.75;;;15.40;99.90;;;;;;2090225;28;20025;-73
2022/10/15 01:57:05;;;;;;;11.30;9.80;;;15.40;99.90;;;;;;2091653;28;20021;-73
2022/10/15 01:58:08;;;;;;;12.10;8.88;;;15.40;99.90;;;;;;2093862;28;20033;-73
2022/10/15 01:59:09;;;;;;;10.00;9.00;;;15.40;99.90;;;;;;2092763;28;20021;-73
2022/10/15 02:00:11;;;;;;;10.27;9.27;;;15.40;99.90;;;;;;2093117;28;20031;-73
2022/10/15 02:01:11;;;;;;;13.35;9.93;;;15.40;99.90;;;;;;2090603;28;20433;-73
2022/10/15 02:02:12;;;;;;;13.23;11.02;;;15.40;99.90;;;;;;2090726;28;20032;-73
2022/10/15 02:03:13;;;;;;;11.95;10.70;;;15.40;99.90;;;;;;2092141;28;20036;-73
2022/10/15 02:04:28;;;;;;;11.85;10.68;;;15.40;99.90;;;;;;2091130;28;20040;-73
2022/10/15 02:05:35;;;;;;;12.45;11.25;;;15.50;99.90;;;;;;2089838;28;20017;-73
2022/10/15 02:06:41;;;;;;;12.93;11.45;;;15.40;99.90;;;;;;2091373;28;20029;-73
2022/10/15 02:07:55;;;;;;;15.10;12.82;;;15.40;99.90;;;;;;2092225;28;20025;-73
2022/10/15 02:09:11;;;;;;;17.42;12.23;;;15.50;99.90;;;;;;2092685;28;20056;-73
2022/10/15 02:10:30;;;;;;;12.88;11.57;;;15.50;99.90;;;;;;2091472;28;20031;-73
2022/10/15 02:11:38;;;;;;;13.13;11.80;;;15.40;99.90;;;;;;2090513;28;20025;-73
2022/10/15 02:12:53;;;;;;;14.07;12.77;;;15.40;99.90;;;;;;2092704;28;20266;-73
2022/10/15 02:14:10;;;;;;;13.63;12.23;;;15.40;99.90;;;;;;2089865;28;20094;-73
2022/10/15 02:15:15;;;;;;;14.80;13.25;;;15.40;99.90;;;;;;2092236;28;20074;-73
2022/10/15 02:16:21;;;;;;;14.05;12.65;;;15.40;99.90;;;;;;2091075;28;20460;-73
2022/10/15 02:17:33;;;;;;;13.52;12.23;;;15.50;99.90;;;;;;2091985;28;20038;-73
2022/10/15 02:18:41;;;;;;;16.10;12.65;;;15.50;99.90;;;;;;2092351;28;20087;-73
2022/10/15 02:19:47;;;;;;;17.52;13.45;;;15.50;99.90;;;;;;2091006;28;20670;-73
2022/10/15 02:20:55;;;;;;;16.25;14.55;;;15.50;99.90;;;;;;2091916;28;20056;-73
2022/10/15 02:22:25;;;;;;;15.20;13.65;;;15.50;99.90;;;;;;2089598;28;20017;-73
2022/10/15 02:24:03;;;;;;;14.00;12.57;;;15.50;99.90;;;;;;2091381;28;20024;-72
2022/10/15 02:25:13;;;;;;;14.98;13.57;;;15.40;99.90;;;;;;2091013;28;20031;-73
2022/10/15 02:26:14;;;;;;;15.40;13.88;;;15.50;99.90;;;;;;2092296;28;20029;-73
2022/10/15 02:27:17;;;;;;;15.02;13.52;;;15.40;99.90;;;;;;2090387;28;20037;-73
2022/10/15 02:28:20;;;;;;;19.65;14.00;;;15.50;99.90;;;;;;2089705;28;20034;-73
2022/10/15 02:29:25;;;;;;;14.63;13.35;;;15.50;99.90;;;;;;2091527;28;20423;-73
2022/10/15 02:30:27;;;;;;;15.15;13.60;;;15.50;99.90;;;;;;2091544;28;20024;-73
2022/10/15 02:31:31;;;;;;;16.83;14.55;;;15.50;99.90;;;;;;2089952;28;20162;-73
2022/10/15 02:32:32;;;;;;;19.75;15.57;;;15.50;99.90;;;;;;2091116;28;20028;-73
2022/10/15 02:33:35;;;;;;;19.48;16.48;;;15.50;99.90;;;;;;2090787;28;20523;-73
2022/10/15 02:34:36;;;;;;;17.33;15.18;;;15.50;99.90;;;;;;2089643;28;20056;-73
2022/10/15 02:35:37;;;;;;;17.50;15.70;;;15.50;99.90;;;;;;2089992;28;20025;-72
2022/10/15 02:36:39;;;;;;;17.48;15.18;;;15.60;99.90;;;;;;2091436;28;20013;-73
2022/10/15 02:37:46;;;;;;;17.67;15.98;;;15.60;99.90;;;;;;2090423;28;20108;-73
2022/10/15 02:38:49;;;;;;;17.55;15.70;;;15.60;99.90;;;;;;2092342;28;20021;-73
2022/10/15 02:39:49;;;;;;;18.95;16.90;;;15.60;99.90;;;;;;2090426;28;20017;-73
2022/10/15 02:40:51;;;;;;;18.38;16.40;;;15.60;99.90;;;;;;2090734;28;20021;-73
2022/10/15 02:41:53;;;;;;;17.92;16.13;;;15.60;99.90;;;;;;2090971;28;20059;-73
2022/10/15 02:42:55;;;;;;;18.75;16.58;;;15.60;99.90;;;;;;2093395;28;20480;-73
2022/10/15 02:43:55;;;;;;;17.88;16.08;;;15.60;99.90;;;;;;2091642;28;20059;-73
2022/10/15 02:44:56;;;;;;;18.98;15.95;;;15.70;99.90;;;;;;2089868;28;20036;-73
2022/10/15 02:45:56;;;;;;;19.45;17.23;;;15.60;99.90;;;;;;2091743;28;20032;-73
2022/10/15 02:46:58;;;;;;;19.67;17.65;;;15.60;99.90;;;;;;2092185;28;20024;-73
2022/10/15 02:47:59;;;;;;;19.13;16.90;;;15.70;99.90;;;;;;2090290;28;20024;-73
2022/10/15 02:48:59;;;;;;;19.83;17.65;;;15.70;99.90;;;;;;2092505;28;20025;-73
2022/10/15 02:50:00;;;;;;;20.13;17.90;;;15.70;99.90;;;;;;2092098;28;20047;-73
2022/10/15 02:51:00;;;;;;;19.02;17.02;;;15.70;99.90;;;;;;2091192;28;20039;-73
2022/10/15 02:52:01;;;;;;;20.75;17.13;;;15.70;99.90;;;;;;2091001;28;20051;-73
2022/10/15 02:53:01;;;;;;;20.23;18.15;;;15.70;99.90;;;;;;2091183;28;20025;-73
2022/10/15 02:54:06;;;;;;;20.02;17.90;;;15.70;99.90;;;;;;2092031;28;20036;-73
2022/10/15 02:55:07;;;;;;;19.58;17.38;;;15.80;99.90;;;;;;2090824;28;20036;-73
2022/10/15 02:56:07;;;;;;;20.67;18.00;;;15.70;99.90;;;;;;2090581;28;20055;-73
2022/10/15 02:57:08;;;;;;;19.70;17.60;;;15.70;99.90;;;;;;2089935;28;20469;-73
2022/10/15 02:58:08;;;;;;;19.67;17.73;;;15.70;99.90;;;;;;2092339;28;20035;-73
2022/10/15 02:59:09;;;;;;;19.92;17.85;;;15.80;99.90;;;;;;2092826;28;20025;-73
2022/10/15 03:00:10;;;;;;;19.25;17.35;;;15.70;99.90;;;;;;2092115;28;20115;-73
2022/10/15 03:01:10;;;;;;;19.20;17.27;;;15.80;99.90;;;;;;2089156;28;20035;-73
2022/10/15 03:02:11;;;;;;;19.33;17.30;;;15.70;99.90;;;;;;2092236;28;20025;-73
2022/10/15 03:03:11;;;;;;;20.45;18.38;;;15.80;99.90;;;;;;2089588;28;20100;-73
2022/10/15 03:04:12;;;;;;;21.80;18.73;;;15.80;99.90;;;;;;2090493;28;20029;-73
2022/10/15 03:05:13;;;;;;;32.40;20.90;;;15.80;99.90;;;;;;2091740;28;20037;-73
2022/10/15 03:06:14;;;;;;;23.60;20.42;;;15.80;99.90;;;;;;2091322;28;20035;-73
2022/10/15 03:07:14;;;;;;;23.77;20.70;;;15.80;99.90;;;;;;2089314;28;20147;-73
2022/10/15 03:08:15;;;;;;;23.45;19.90;;;15.80;99.90;;;;;;2091014;28;20032;-73
2022/10/15 03:09:16;;;;;;;27.35;20.85;;;15.80;99.90;;;;;;2089201;28;20503;-73
2022/10/15 03:10:16;;;;;;;25.85;20.92;;;15.80;99.90;;;;;;2090578;28;20103;-73
2022/10/15 03:11:17;;;;;;;23.13;20.63;;;15.80;99.90;;;;;;2091870;28;20027;-73
2022/10/15 03:12:19;;;;;;;27.55;21.25;;;15.80;99.90;;;;;;2094460;28;20059;-73
2022/10/15 03:13:20;;;;;;;24.33;20.88;;;15.80;99.90;;;;;;2090529;28;20017;-73
2022/10/15 03:14:20;;;;;;;25.38;21.95;;;15.70;99.90;;;;;;2089450;28;20120;-73
2022/10/15 03:15:21;;;;;;;28.67;22.92;;;15.80;99.90;;;;;;2091079;28;20040;-73
2022/10/15 03:16:21;;;;;;;27.33;21.98;;;15.80;99.90;;;;;;2091672;28;20114;-72
2022/10/15 03:17:22;;;;;;;28.65;23.10;;;15.80;99.90;;;;;;2088630;28;20096;-73
2022/10/15 03:18:22;;;;;;;28.52;22.75;;;15.80;99.90;;;;;;2090706;28;20533;-73
2022/10/15 03:19:23;;;;;;;36.92;25.35;;;15.80;99.90;;;;;;2091437;28;20059;-72
2022/10/15 03:20:23;;;;;;;38.75;27.88;;;15.80;99.90;;;;;;2089643;28;20059;-73
2022/10/15 03:21:24;;;;;;;37.60;27.08;;;15.80;99.90;;;;;;2091015;28;20030;-73
2022/10/15 03:22:25;;;;;;;37.90;27.65;;;15.80;99.90;;;;;;2092507;28;20120;-73
2022/10/15 03:23:26;;;;;;;43.70;27.88;;;15.80;99.90;;;;;;2091840;28;20411;-72
2022/10/15 03:24:26;;;;;;;43.63;28.77;;;15.80;99.90;;;;;;2090390;28;20059;-72
2022/10/15 03:25:27;;;;;;;46.55;30.58;;;15.80;99.90;;;;;;2091074;28;20472;-72
2022/10/15 03:26:28;;;;;;;43.33;29.65;;;15.80;99.90;;;;;;2093773;28;20367;-73
2022/10/15 03:27:28;;;;;;;43.72;31.25;;;15.80;99.90;;;;;;2090569;28;20047;-73
2022/10/15 03:28:29;;;;;;;44.00;30.33;;;15.80;99.90;;;;;;2090562;28;20106;-72
2022/10/15 03:29:29;;;;;;;43.30;30.85;;;15.80;99.90;;;;;;2091066;28;20091;-72
2022/10/15 03:30:30;;;;;;;40.35;29.20;;;15.80;99.90;;;;;;2089621;28;20392;-73
2022/10/15 03:31:30;;;;;;;45.90;29.90;;;15.80;99.90;;;;;;2090238;28;20094;-73
2022/10/15 03:32:31;;;;;;;39.28;29.17;;;15.80;99.90;;;;;;2089511;28;20025;-73
2022/10/15 03:33:31;;;;;;;39.60;28.52;;;15.80;99.90;;;;;;2089656;28;20036;-73
2022/10/15 03:34:32;;;;;;;43.25;31.05;;;15.80;99.90;;;;;;2092863;28;20105;-73
2022/10/15 03:35:32;;;;;;;39.00;28.50;;;15.80;99.90;;;;;;2091282;28;20021;-73
2022/10/15 03:36:33;;;;;;;37.28;27.83;;;15.80;99.90;;;;;;2088392;28;20028;-73
2022/10/15 03:37:33;;;;;;;42.13;29.33;;;15.80;99.90;;;;;;2090747;28;20102;-73
2022/10/15 03:38:34;;;;;;;42.22;29.00;;;15.80;99.90;;;;;;2093066;28;20107;-73
2022/10/15 03:39:34;;;;;;;39.50;28.63;;;15.80;99.90;;;;;;2092341;28;20054;-73
2022/10/15 03:40:35;;;;;;;33.80;27.38;;;15.90;99.90;;;;;;2091248;28;20021;-73
2022/10/15 03:41:36;;;;;;;33.67;26.77;;;15.80;99.90;;;;;;2091511;28;20112;-73
2022/10/15 03:42:36;;;;;;;36.60;26.85;;;15.80;99.90;;;;;;2087882;28;20017;-73
2022/10/15 03:43:37;;;;;;;33.30;24.75;;;15.90;99.90;;;;;;2090394;28;20048;-73
2022/10/15 03:44:37;;;;;;;31.05;25.05;;;15.90;99.90;;;;;;2089569;28;20032;-73
2022/10/15 03:45:38;;;;;;;30.27;23.75;;;15.80;99.90;;;;;;2093247;28;20032;-73
2022/10/15 03:46:38;;;;;;;27.13;23.73;;;15.90;99.90;;;;;;2092108;28;20028;-73
2022/10/15 03:47:39;;;;;;;32.13;23.83;;;15.80;99.90;;;;;;2089779;28;20021;-73
2022/10/15 03:48:39;;;;;;;30.90;24.15;;;15.90;99.90;;;;;;2089356;28;20086;-73
2022/10/15 03:49:40;;;;;;;30.38;23.23;;;15.90;99.90;;;;;;2089518;28;20040;-73
2022/10/15 03:50:40;;;;;;;30.15;21.95;;;15.90;99.90;;;;;;2091281;28;20024;-72
2022/10/15 03:51:41;;;;;;;27.77;23.25;;;15.90;99.90;;;;;;2090910;28;20033;-73
2022/10/15 03:52:42;;;;;;;29.15;23.48;;;15.90;99.90;;;;;;2091200;28;20399;-73
2022/10/15 03:53:42;;;;;;;29.95;23.40;;;15.90;99.90;;;;;;2088709;28;20025;-73
2022/10/15 03:54:43;;;;;;;32.67;23.40;;;15.90;99.90;;;;;;2089697;28;20534;-73
2022/10/15 03:55:43;;;;;;;27.60;23.83;;;15.90;99.90;;;;;;2090598;28;20021;-73
2022/10/15 03:56:44;;;;;;;28.45;21.23;;;15.90;99.90;;;;;;2090414;28;20703;-73
2022/10/15 03:57:44;;;;;;;28.55;22.13;;;15.90;99.90;;;;;;2093374;28;20021;-73
2022/10/15 03:58:45;;;;;;;27.48;21.90;;;15.90;99.90;;;;;;2092374;28;20890;-73
2022/10/15 03:59:45;;;;;;;25.52;20.85;;;16.00;99.90;;;;;;2090531;28;20044;-72
2022/10/15 04:00:46;;;;;;;24.23;20.95;;;15.90;99.90;;;;;;2091711;28;20091;-73
2022/10/15 04:01:46;;;;;;;23.02;20.70;;;15.90;99.90;;;;;;2089770;28;20060;-73
2022/10/15 04:02:47;;;;;;;22.88;20.50;;;15.90;99.90;;;;;;2089938;28;20020;-73
2022/10/15 04:03:51;;;;;;;22.63;17.38;;;15.90;99.90;;;;;;2090484;28;20025;-73
2022/10/15 04:04:53;;;;;;;23.00;20.50;;;15.90;99.90;;;;;;2091552;28;20036;-73
2022/10/15 04:05:53;;;;;;;21.23;17.90;;;15.90;99.90;;;;;;2090450;28;20031;-73
2022/10/15 04:06:54;;;;;;;22.00;19.73;;;15.90;99.90;;;;;;2092482;28;20041;-73
2022/10/15 04:07:56;;;;;;;20.48;18.08;;;15.90;99.90;;;;;;2091177;28;20458;-73
2022/10/15 04:08:56;;;;;;;21.83;17.52;;;15.90;99.90;;;;;;2089226;28;20042;-73
2022/10/15 04:09:57;;;;;;;21.75;17.95;;;15.90;99.90;;;;;;2091274;28;20082;-73
2022/10/15 04:10:58;;;;;;;21.35;18.55;;;15.90;99.90;;;;;;2090207;28;20060;-73
2022/10/15 04:11:59;;;;;;;17.60;15.95;;;15.90;99.90;;;;;;2089837;28;20029;-73
2022/10/15 04:12:59;;;;;;;21.42;17.58;;;15.90;99.90;;;;;;2089952;28;20052;-73
2022/10/15 04:14:00;;;;;;;17.30;14.23;;;15.90;99.90;;;;;;2094168;28;20487;-73
2022/10/15 04:15:00;;;;;;;20.15;16.15;;;15.90;99.90;;;;;;2093159;28;20116;-73
2022/10/15 04:16:04;;;;;;;19.25;16.67;;;15.90;99.90;;;;;;2089200;28;20038;-73
2022/10/15 04:17:05;;;;;;;14.75;13.18;;;15.90;99.90;;;;;;2092027;28;20819;-73
2022/10/15 04:18:05;;;;;;;18.65;16.42;;;15.80;99.90;;;;;;2090488;28;20039;-73
2022/10/15 04:19:06;;;;;;;19.83;17.40;;;15.80;99.90;;;;;;2091507;28;20021;-73
2022/10/15 04:20:07;;;;;;;15.93;12.98;;;15.90;99.90;;;;;;2091805;28;20551;-73
2022/10/15 04:21:08;;;;;;;18.50;16.70;;;15.80;99.90;;;;;;2089559;28;20541;-72
2022/10/15 04:22:08;;;;;;;19.08;14.73;;;15.80;99.90;;;;;;2090015;28;20037;-73
2022/10/15 04:23:09;;;;;;;22.23;17.95;;;15.80;99.90;;;;;;2089527;28;20119;-73
2022/10/15 04:24:09;;;;;;;23.50;18.85;;;15.80;99.90;;;;;;2090762;28;20025;-73
2022/10/15 04:25:10;;;;;;;15.15;13.55;;;15.80;99.90;;;;;;2090344;28;20032;-73
2022/10/15 04:26:10;;;;;;;17.70;15.90;;;15.80;99.90;;;;;;2088988;28;20445;-73
2022/10/15 04:27:12;;;;;;;19.23;17.23;;;15.80;99.90;;;;;;2088405;28;20822;-73
2022/10/15 04:28:13;;;;;;;16.63;14.98;;;15.80;99.90;;;;;;2089622;28;20017;-73
2022/10/15 04:29:13;;;;;;;20.98;18.92;;;15.80;99.90;;;;;;2088988;28;20029;-73
2022/10/15 04:30:14;;;;;;;17.20;15.50;;;15.80;99.90;;;;;;2089882;28;20092;-72
2022/10/15 04:31:15;;;;;;;15.88;14.15;;;15.80;99.90;;;;;;2090545;28;20032;-72
2022/10/15 04:32:16;;;;;;;18.13;16.33;;;15.70;99.90;;;;;;2091238;28;20151;-73
2022/10/15 04:33:16;;;;;;;19.42;17.23;;;15.70;99.90;;;;;;2090200;28;20043;-73
2022/10/15 04:34:17;;;;;;;18.40;16.60;;;15.70;99.90;;;;;;2089769;28;20024;-72
2022/10/15 04:35:17;;;;;;;19.38;17.52;;;15.70;99.90;;;;;;2090428;28;20037;-73
2022/10/15 04:36:18;;;;;;;22.40;20.17;;;15.70;99.90;;;;;;2089597;28;20943;-73
2022/10/15 04:37:18;;;;;;;23.85;21.45;;;15.70;99.90;;;;;;2089595;28;20037;-73
2022/10/15 04:38:19;;;;;;;22.83;20.60;;;15.70;99.90;;;;;;2091037;28;20185;-72
2022/10/15 04:39:20;;;;;;;23.63;21.27;;;15.70;99.90;;;;;;2092924;28;20081;-73
2022/10/15 04:40:20;;;;;;;22.50;20.23;;;15.70;99.90;;;;;;2092043;28;20025;-73
2022/10/15 04:41:21;;;;;;;21.42;19.13;;;15.70;99.90;;;;;;2089202;28;20028;-73
2022/10/15 04:42:21;;;;;;;23.10;20.70;;;15.60;99.90;;;;;;2089949;28;20028;-73
2022/10/15 04:43:22;;;;;;;24.85;22.17;;;15.70;99.90;;;;;;2091734;28;20012;-72
2022/10/15 04:44:22;;;;;;;24.27;21.67;;;15.70;99.90;;;;;;2090073;28;22118;-73
2022/10/15 04:45:23;;;;;;;25.35;22.92;;;15.60;99.90;;;;;;2088793;28;20598;-73
2022/10/15 04:46:24;;;;;;;26.02;23.02;;;15.60;99.90;;;;;;2089311;28;20033;-72
2022/10/15 04:47:24;;;;;;;25.20;22.70;;;15.70;99.90;;;;;;2088553;28;20516;-73
2022/10/15 04:48:28;;;;;;;26.33;23.52;;;15.60;99.90;;;;;;2088822;28;20029;-73
2022/10/15 04:49:28;;;;;;;27.85;23.63;;;15.60;99.90;;;;;;2092082;28;20070;-73
2022/10/15 04:50:29;;;;;;;25.67;22.95;;;15.60;99.90;;;;;;2090932;28;20119;-72
2022/10/15 04:51:29;;;;;;;25.63;23.10;;;15.60;99.90;;;;;;2089611;28;20031;-73
2022/10/15 04:52:30;;;;;;;27.45;23.48;;;15.60;99.90;;;;;;2090997;28;20025;-73
2022/10/15 04:53:31;;;;;;;27.08;23.73;;;15.60;99.90;;;;;;2089676;28;20519;-73
2022/10/15 04:54:31;;;;;;;26.85;24.15;;;15.60;99.90;;;;;;2091394;28;20082;-73
2022/10/15 04:55:32;;;;;;;27.10;24.33;;;15.60;99.90;;;;;;2090194;28;20021;-73
2022/10/15 04:56:32;;;;;;;26.60;23.92;;;15.60;99.90;;;;;;2092901;28;20089;-73
2022/10/15 04:57:33;;;;;;;27.48;24.63;;;15.60;99.90;;;;;;2089844;28;20033;-73
2022/10/15 04:58:35;;;;;;;26.23;23.42;;;15.60;99.90;;;;;;2090591;28;20029;-72
2022/10/15 04:59:35;;;;;;;28.45;25.58;;;15.50;99.90;;;;;;2089643;28;20033;-72
2022/10/15 05:00:37;;;;;;;28.23;25.15;;;15.50;99.90;;;;;;2090361;28;20036;-73
2022/10/15 05:01:38;;;;;;;27.75;25.05;;;15.60;99.90;;;;;;2089779;28;20082;-73
2022/10/15 05:02:42;;;;;;;28.25;25.33;;;15.60;99.90;;;;;;2089174;28;20029;-73
2022/10/15 05:03:44;;;;;;;29.33;26.23;;;15.60;99.90;;;;;;2088834;28;20013;-73
2022/10/15 05:04:45;;;;;;;29.23;26.17;;;15.60;99.90;;;;;;2090206;28;20095;-73
2022/10/15 05:05:45;;;;;;;28.27;25.05;;;15.60;99.90;;;;;;2083950;28;20033;-73
2022/10/15 05:06:46;;;;;;;30.00;26.70;;;15.60;99.90;;;;;;2073011;28;20037;-73
2022/10/15 05:07:46;;;;;;;29.75;26.58;;;15.60;99.90;;;;;;2089078;28;20029;-72
2022/10/15 05:08:48;;;;;;;27.77;24.90;;;15.60;99.90;;;;;;2089695;28;20059;-73
2022/10/15 05:09:48;;;;;;;29.65;25.98;;;15.60;99.90;;;;;;2089842;28;20067;-73
2022/10/15 05:10:49;;;;;;;32.78;25.98;;;15.50;99.90;;;;;;2090814;28;20040;-73
2022/10/15 05:11:50;;;;;;;29.23;26.33;;;15.50;99.90;;;;;;2089840;28;20659;-72
2022/10/15 05:12:50;;;;;;;30.02;26.92;;;15.50;99.90;;;;;;2088919;28;20103;-73
2022/10/15 05:13:51;;;;;;;31.00;26.60;;;15.50;99.90;;;;;;2091636;28;20130;-73
2022/10/15 05:14:52;;;;;;;29.15;26.08;;;15.50;99.90;;;;;;2092525;28;20039;-73
2022/10/15 05:15:52;;;;;;;28.05;25.27;;;15.50;99.90;;;;;;2091364;28;20040;-73
2022/10/15 05:16:53;;;;;;;29.23;26.30;;;15.50;99.90;;;;;;2091467;28;20032;-73
2022/10/15 05:17:53;;;;;;;29.92;26.80;;;15.50;99.90;;;;;;2094016;28;20125;-72
2022/10/15 05:19:02;;;;;;;29.77;26.30;;;15.50;99.90;;;;;;2094848;28;20605;-73
2022/10/15 05:20:03;;;;;;;28.90;26.10;;;15.50;99.90;;;;;;2092984;28;20020;-73
2022/10/15 05:21:05;;;;;;;30.33;27.23;;;15.50;99.90;;;;;;2092424;28;20106;-73
2022/10/15 05:22:05;;;;;;;29.10;26.10;;;15.50;99.90;;;;;;2092498;28;20036;-72